sensor_id;sensor_type;location;lat;lon;timestamp;P1;durP1;ratioP1;P2;durP2;ratioP2
28862;SDS011;15994;51.796;13.006;2022-09-12T00:00:42;5.75;;;4.40;;
28862;SDS011;15994;51.796;13.006;2022-09-12T00:03:09;5.15;;;4.20;;
28862;SDS011;15994;51.796;13.006;2022-09-12T00:05:45;7.28;;;4.43;;
28862;SDS011;15994;51.796;13.006;2022-09-12T00:08:12;9.20;;;5.88;;
28862;SDS011;15994;51.796;13.006;2022-09-12T00:10:40;9.43;;;5.70;;
28862;SDS011;15994;51.796;13.006;2022-09-12T00:13:07;7.47;;;6.30;;
28862;SDS011;15994;51.796;13.006;2022-09-12T00:15:39;8.38;;;7.20;;
28862;SDS011;15994;51.796;13.006;2022-09-12T00:18:11;9.85;;;7.72;;
28862;SDS011;15994;51.796;13.006;2022-09-12T00:20:41;8.70;;;7.45;;
28862;SDS011;15994;51.796;13.006;2022-09-12T00:23:12;10.02;;;7.20;;
28862;SDS011;15994;51.796;13.006;2022-09-12T00:25:40;10.38;;;7.75;;
28862;SDS011;15994;51.796;13.006;2022-09-12T00:28:11;11.18;;;7.63;;
28862;SDS011;15994;51.796;13.006;2022-09-12T00:30:42;8.60;;;7.18;;
28862;SDS011;15994;51.796;13.006;2022-09-12T00:33:09;10.75;;;8.02;;
28862;SDS011;15994;51.796;13.006;2022-09-12T00:35:43;11.30;;;8.45;;
28862;SDS011;15994;51.796;13.006;2022-09-12T00:38:11;11.05;;;9.07;;
28862;SDS011;15994;51.796;13.006;2022-09-12T00:40:39;11.77;;;9.27;;
28862;SDS011;15994;51.796;13.006;2022-09-12T00:45:57;10.68;;;9.52;;
28862;SDS011;15994;51.796;13.006;2022-09-12T00:48:31;13.45;;;10.32;;
28862;SDS011;15994;51.796;13.006;2022-09-12T00:51:02;11.20;;;9.50;;
28862;SDS011;15994;51.796;13.006;2022-09-12T00:53:28;12.27;;;9.85;;
28862;SDS011;15994;51.796;13.006;2022-09-12T00:55:56;12.00;;;9.18;;
28862;SDS011;15994;51.796;13.006;2022-09-12T00:58:24;12.18;;;9.45;;
28862;SDS011;15994;51.796;13.006;2022-09-12T01:00:55;13.10;;;10.00;;
28862;SDS011;15994;51.796;13.006;2022-09-12T01:03:23;14.05;;;9.20;;
28862;SDS011;15994;51.796;13.006;2022-09-12T01:08:29;13.35;;;10.07;;
28862;SDS011;15994;51.796;13.006;2022-09-12T01:10:57;11.07;;;9.07;;
28862;SDS011;15994;51.796;13.006;2022-09-12T01:13:24;12.68;;;9.40;;
28862;SDS011;15994;51.796;13.006;2022-09-12T01:15:51;12.35;;;9.27;;
28862;SDS011;15994;51.796;13.006;2022-09-12T01:21:12;11.13;;;8.52;;
28862;SDS011;15994;51.796;13.006;2022-09-12T01:24:10;10.82;;;8.73;;
28862;SDS011;15994;51.796;13.006;2022-09-12T01:26:49;10.95;;;8.20;;
28862;SDS011;15994;51.796;13.006;2022-09-12T01:32:26;10.20;;;8.33;;
28862;SDS011;15994;51.796;13.006;2022-09-12T01:41:13;10.27;;;8.77;;
28862;SDS011;15994;51.796;13.006;2022-09-12T01:44:21;10.98;;;8.68;;
28862;SDS011;15994;51.796;13.006;2022-09-12T01:46:52;10.10;;;7.97;;
28862;SDS011;15994;51.796;13.006;2022-09-12T01:49:24;11.15;;;9.10;;
28862;SDS011;15994;51.796;13.006;2022-09-12T01:55:18;11.68;;;9.25;;
28862;SDS011;15994;51.796;13.006;2022-09-12T01:57:53;11.30;;;9.18;;
28862;SDS011;15994;51.796;13.006;2022-09-12T02:00:41;13.57;;;10.10;;
28862;SDS011;15994;51.796;13.006;2022-09-12T02:03:24;11.23;;;9.45;;
28862;SDS011;15994;51.796;13.006;2022-09-12T02:08:26;14.48;;;9.48;;
28862;SDS011;15994;51.796;13.006;2022-09-12T02:11:05;11.50;;;9.35;;
28862;SDS011;15994;51.796;13.006;2022-09-12T02:13:41;10.77;;;8.90;;
28862;SDS011;15994;51.796;13.006;2022-09-12T02:16:17;9.82;;;8.82;;
28862;SDS011;15994;51.796;13.006;2022-09-12T02:18:52;11.60;;;8.98;;
28862;SDS011;15994;51.796;13.006;2022-09-12T02:21:22;10.77;;;8.18;;
28862;SDS011;15994;51.796;13.006;2022-09-12T02:23:53;11.70;;;7.88;;
28862;SDS011;15994;51.796;13.006;2022-09-12T02:26:24;10.20;;;8.30;;
28862;SDS011;15994;51.796;13.006;2022-09-12T02:28:56;10.65;;;8.38;;
28862;SDS011;15994;51.796;13.006;2022-09-12T02:37:07;9.82;;;7.95;;
28862;SDS011;15994;51.796;13.006;2022-09-12T02:39:37;10.05;;;7.95;;
28862;SDS011;15994;51.796;13.006;2022-09-12T02:42:03;11.20;;;8.32;;
28862;SDS011;15994;51.796;13.006;2022-09-12T02:44:31;10.20;;;8.02;;
28862;SDS011;15994;51.796;13.006;2022-09-12T02:47:00;10.63;;;8.43;;
28862;SDS011;15994;51.796;13.006;2022-09-12T02:49:31;10.50;;;8.10;;
28862;SDS011;15994;51.796;13.006;2022-09-12T02:51:58;8.50;;;7.60;;
28862;SDS011;15994;51.796;13.006;2022-09-12T02:54:26;9.43;;;8.35;;
28862;SDS011;15994;51.796;13.006;2022-09-12T02:56:54;8.95;;;7.78;;
28862;SDS011;15994;51.796;13.006;2022-09-12T02:59:20;9.32;;;7.45;;
28862;SDS011;15994;51.796;13.006;2022-09-12T03:02:06;8.75;;;7.78;;
28862;SDS011;15994;51.796;13.006;2022-09-12T03:05:10;10.45;;;7.68;;
28862;SDS011;15994;51.796;13.006;2022-09-12T03:08:03;10.10;;;8.15;;
28862;SDS011;15994;51.796;13.006;2022-09-12T03:10:53;9.30;;;7.80;;
28862;SDS011;15994;51.796;13.006;2022-09-12T03:16:23;11.18;;;8.18;;
28862;SDS011;15994;51.796;13.006;2022-09-12T03:24:48;8.35;;;7.13;;
28862;SDS011;15994;51.796;13.006;2022-09-12T03:27:44;8.10;;;6.78;;
28862;SDS011;15994;51.796;13.006;2022-09-12T03:30:18;6.93;;;6.05;;
28862;SDS011;15994;51.796;13.006;2022-09-12T03:32:46;7.72;;;6.47;;
28862;SDS011;15994;51.796;13.006;2022-09-12T03:35:15;10.48;;;7.20;;
28862;SDS011;15994;51.796;13.006;2022-09-12T03:37:44;9.02;;;7.85;;
28862;SDS011;15994;51.796;13.006;2022-09-12T03:40:11;11.25;;;9.57;;
28862;SDS011;15994;51.796;13.006;2022-09-12T03:42:38;10.27;;;8.50;;
28862;SDS011;15994;51.796;13.006;2022-09-12T03:45:04;9.43;;;8.40;;
28862;SDS011;15994;51.796;13.006;2022-09-12T03:47:31;9.60;;;7.97;;
28862;SDS011;15994;51.796;13.006;2022-09-12T03:49:58;9.70;;;8.18;;
28862;SDS011;15994;51.796;13.006;2022-09-12T03:52:24;9.40;;;8.32;;
28862;SDS011;15994;51.796;13.006;2022-09-12T03:54:51;9.82;;;8.40;;
28862;SDS011;15994;51.796;13.006;2022-09-12T03:57:18;10.30;;;8.43;;
28862;SDS011;15994;51.796;13.006;2022-09-12T03:59:44;9.77;;;8.77;;
28862;SDS011;15994;51.796;13.006;2022-09-12T04:02:11;9.73;;;8.73;;
28862;SDS011;15994;51.796;13.006;2022-09-12T04:04:39;10.43;;;9.07;;
28862;SDS011;15994;51.796;13.006;2022-09-12T04:07:07;9.88;;;8.10;;
28862;SDS011;15994;51.796;13.006;2022-09-12T04:09:34;8.98;;;7.95;;
28862;SDS011;15994;51.796;13.006;2022-09-12T04:12:01;10.95;;;9.35;;
28862;SDS011;15994;51.796;13.006;2022-09-12T04:14:27;9.93;;;8.93;;
28862;SDS011;15994;51.796;13.006;2022-09-12T04:16:54;11.48;;;9.20;;
28862;SDS011;15994;51.796;13.006;2022-09-12T04:19:20;9.93;;;8.93;;
28862;SDS011;15994;51.796;13.006;2022-09-12T04:21:47;10.20;;;9.20;;
28862;SDS011;15994;51.796;13.006;2022-09-12T04:24:14;10.50;;;8.65;;
28862;SDS011;15994;51.796;13.006;2022-09-12T04:26:40;10.23;;;8.82;;
28862;SDS011;15994;51.796;13.006;2022-09-12T04:29:08;9.65;;;7.90;;
28862;SDS011;15994;51.796;13.006;2022-09-12T04:31:39;10.07;;;9.05;;
28862;SDS011;15994;51.796;13.006;2022-09-12T04:34:06;12.02;;;8.40;;
28862;SDS011;15994;51.796;13.006;2022-09-12T04:36:32;9.15;;;8.15;;
28862;SDS011;15994;51.796;13.006;2022-09-12T04:39:00;9.52;;;7.88;;
28862;SDS011;15994;51.796;13.006;2022-09-12T04:41:28;9.43;;;8.23;;
28862;SDS011;15994;51.796;13.006;2022-09-12T04:43:57;10.13;;;7.68;;
28862;SDS011;15994;51.796;13.006;2022-09-12T04:46:26;8.55;;;7.40;;
28862;SDS011;15994;51.796;13.006;2022-09-12T04:48:54;7.97;;;7.13;;
28862;SDS011;15994;51.796;13.006;2022-09-12T04:51:23;7.90;;;7.10;;
28862;SDS011;15994;51.796;13.006;2022-09-12T04:53:51;8.48;;;6.93;;
28862;SDS011;15994;51.796;13.006;2022-09-12T04:56:19;11.55;;;7.82;;
28862;SDS011;15994;51.796;13.006;2022-09-12T04:58:46;9.45;;;7.88;;
28862;SDS011;15994;51.796;13.006;2022-09-12T05:01:17;9.77;;;7.22;;
28862;SDS011;15994;51.796;13.006;2022-09-12T05:03:45;9.40;;;7.45;;
28862;SDS011;15994;51.796;13.006;2022-09-12T05:06:13;9.18;;;7.80;;
28862;SDS011;15994;51.796;13.006;2022-09-12T05:08:45;11.90;;;8.57;;
28862;SDS011;15994;51.796;13.006;2022-09-12T05:11:13;11.07;;;9.13;;
28862;SDS011;15994;51.796;13.006;2022-09-12T05:13:45;11.70;;;9.27;;
28862;SDS011;15994;51.796;13.006;2022-09-12T05:16:12;10.73;;;9.18;;
28862;SDS011;15994;51.796;13.006;2022-09-12T05:18:40;9.65;;;8.27;;
28862;SDS011;15994;51.796;13.006;2022-09-12T05:21:09;9.48;;;8.43;;
28862;SDS011;15994;51.796;13.006;2022-09-12T05:23:37;9.07;;;8.15;;
28862;SDS011;15994;51.796;13.006;2022-09-12T05:26:04;10.13;;;8.50;;
28862;SDS011;15994;51.796;13.006;2022-09-12T05:28:35;10.57;;;8.13;;
28862;SDS011;15994;51.796;13.006;2022-09-12T05:31:03;10.18;;;8.45;;
28862;SDS011;15994;51.796;13.006;2022-09-12T05:33:36;12.75;;;8.98;;
28862;SDS011;15994;51.796;13.006;2022-09-12T05:36:05;10.75;;;9.15;;
28862;SDS011;15994;51.796;13.006;2022-09-12T05:38:34;10.43;;;9.32;;
28862;SDS011;15994;51.796;13.006;2022-09-12T05:41:02;13.95;;;9.80;;
28862;SDS011;15994;51.796;13.006;2022-09-12T05:43:33;11.18;;;10.00;;
28862;SDS011;15994;51.796;13.006;2022-09-12T05:46:02;11.20;;;9.95;;
28862;SDS011;15994;51.796;13.006;2022-09-12T05:48:32;11.32;;;9.75;;
28862;SDS011;15994;51.796;13.006;2022-09-12T05:51:03;11.95;;;9.75;;
28862;SDS011;15994;51.796;13.006;2022-09-12T05:53:33;10.18;;;9.20;;
28862;SDS011;15994;51.796;13.006;2022-09-12T05:56:09;10.40;;;8.50;;
28862;SDS011;15994;51.796;13.006;2022-09-12T05:58:39;9.60;;;8.43;;
28862;SDS011;15994;51.796;13.006;2022-09-12T06:01:10;6.15;;;5.22;;
28862;SDS011;15994;51.796;13.006;2022-09-12T06:03:40;4.85;;;4.35;;
28862;SDS011;15994;51.796;13.006;2022-09-12T06:06:11;7.18;;;5.05;;
28862;SDS011;15994;51.796;13.006;2022-09-12T06:08:40;5.78;;;4.28;;
28862;SDS011;15994;51.796;13.006;2022-09-12T06:11:09;5.30;;;3.55;;
28862;SDS011;15994;51.796;13.006;2022-09-12T06:13:39;6.40;;;4.10;;
28862;SDS011;15994;51.796;13.006;2022-09-12T06:16:06;3.72;;;3.33;;
28862;SDS011;15994;51.796;13.006;2022-09-12T06:18:38;4.40;;;3.50;;
28862;SDS011;15994;51.796;13.006;2022-09-12T06:21:07;4.63;;;2.75;;
28862;SDS011;15994;51.796;13.006;2022-09-12T06:23:35;3.30;;;2.55;;
28862;SDS011;15994;51.796;13.006;2022-09-12T06:26:03;3.72;;;2.90;;
28862;SDS011;15994;51.796;13.006;2022-09-12T06:28:31;3.40;;;3.03;;
28862;SDS011;15994;51.796;13.006;2022-09-12T06:31:09;3.83;;;2.47;;
28862;SDS011;15994;51.796;13.006;2022-09-12T06:33:39;5.25;;;2.45;;
28862;SDS011;15994;51.796;13.006;2022-09-12T06:36:09;3.13;;;2.10;;
28862;SDS011;15994;51.796;13.006;2022-09-12T06:38:37;5.68;;;2.25;;
28862;SDS011;15994;51.796;13.006;2022-09-12T06:41:07;4.35;;;2.80;;
28862;SDS011;15994;51.796;13.006;2022-09-12T06:43:36;5.53;;;2.58;;
28862;SDS011;15994;51.796;13.006;2022-09-12T06:46:03;4.13;;;2.75;;
28862;SDS011;15994;51.796;13.006;2022-09-12T06:48:31;4.63;;;2.70;;
28862;SDS011;15994;51.796;13.006;2022-09-12T06:50:59;3.42;;;2.50;;
28862;SDS011;15994;51.796;13.006;2022-09-12T06:53:35;4.43;;;3.08;;
28862;SDS011;15994;51.796;13.006;2022-09-12T06:56:03;4.22;;;2.70;;
28862;SDS011;15994;51.796;13.006;2022-09-12T06:58:32;6.00;;;3.00;;
28862;SDS011;15994;51.796;13.006;2022-09-12T07:01:00;3.55;;;3.05;;
28862;SDS011;15994;51.796;13.006;2022-09-12T07:03:28;3.67;;;3.17;;
28862;SDS011;15994;51.796;13.006;2022-09-12T07:05:56;4.70;;;2.47;;
28862;SDS011;15994;51.796;13.006;2022-09-12T07:08:22;4.70;;;2.80;;
28862;SDS011;15994;51.796;13.006;2022-09-12T07:10:49;2.88;;;2.33;;
28862;SDS011;15994;51.796;13.006;2022-09-12T07:13:16;3.15;;;2.35;;
28862;SDS011;15994;51.796;13.006;2022-09-12T07:15:42;3.08;;;2.47;;
28862;SDS011;15994;51.796;13.006;2022-09-12T07:18:09;2.75;;;2.28;;
28862;SDS011;15994;51.796;13.006;2022-09-12T07:20:36;2.97;;;1.80;;
28862;SDS011;15994;51.796;13.006;2022-09-12T07:23:03;3.58;;;1.85;;
28862;SDS011;15994;51.796;13.006;2022-09-12T07:25:29;4.22;;;1.92;;
28862;SDS011;15994;51.796;13.006;2022-09-12T07:27:56;2.70;;;1.50;;
28862;SDS011;15994;51.796;13.006;2022-09-12T07:30:23;2.60;;;1.50;;
28862;SDS011;15994;51.796;13.006;2022-09-12T07:32:53;3.08;;;1.50;;
28862;SDS011;15994;51.796;13.006;2022-09-12T07:35:20;3.13;;;1.50;;
28862;SDS011;15994;51.796;13.006;2022-09-12T07:37:46;3.30;;;1.70;;
28862;SDS011;15994;51.796;13.006;2022-09-12T07:40:13;3.17;;;1.70;;
28862;SDS011;15994;51.796;13.006;2022-09-12T07:42:40;3.17;;;1.70;;
28862;SDS011;15994;51.796;13.006;2022-09-12T07:45:06;2.00;;;1.60;;
28862;SDS011;15994;51.796;13.006;2022-09-12T07:47:34;2.78;;;1.67;;
28862;SDS011;15994;51.796;13.006;2022-09-12T07:50:00;3.22;;;1.60;;
28862;SDS011;15994;51.796;13.006;2022-09-12T07:52:27;2.05;;;1.50;;
28862;SDS011;15994;51.796;13.006;2022-09-12T07:54:53;2.65;;;1.23;;
28862;SDS011;15994;51.796;13.006;2022-09-12T07:57:20;2.92;;;1.45;;
28862;SDS011;15994;51.796;13.006;2022-09-12T07:59:46;2.63;;;1.55;;
28862;SDS011;15994;51.796;13.006;2022-09-12T08:02:13;2.38;;;1.40;;
28862;SDS011;15994;51.796;13.006;2022-09-12T08:04:40;2.50;;;1.30;;
28862;SDS011;15994;51.796;13.006;2022-09-12T08:07:07;3.08;;;1.40;;
28862;SDS011;15994;51.796;13.006;2022-09-12T08:09:34;2.92;;;1.83;;
28862;SDS011;15994;51.796;13.006;2022-09-12T08:12:01;3.60;;;1.73;;
28862;SDS011;15994;51.796;13.006;2022-09-12T08:14:27;2.60;;;1.60;;
28862;SDS011;15994;51.796;13.006;2022-09-12T08:16:54;3.45;;;1.40;;
28862;SDS011;15994;51.796;13.006;2022-09-12T08:19:20;2.67;;;1.35;;
28862;SDS011;15994;51.796;13.006;2022-09-12T08:21:47;3.95;;;1.42;;
28862;SDS011;15994;51.796;13.006;2022-09-12T08:24:14;2.60;;;1.60;;
28862;SDS011;15994;51.796;13.006;2022-09-12T08:26:40;2.58;;;1.35;;
28862;SDS011;15994;51.796;13.006;2022-09-12T08:29:07;1.90;;;1.25;;
28862;SDS011;15994;51.796;13.006;2022-09-12T08:31:33;2.30;;;1.30;;
28862;SDS011;15994;51.796;13.006;2022-09-12T08:34:02;3.30;;;1.50;;
28862;SDS011;15994;51.796;13.006;2022-09-12T08:36:31;2.15;;;1.30;;
28862;SDS011;15994;51.796;13.006;2022-09-12T08:38:58;3.65;;;1.40;;
28862;SDS011;15994;51.796;13.006;2022-09-12T08:44:00;3.00;;;1.20;;
28862;SDS011;15994;51.796;13.006;2022-09-12T08:46:47;2.88;;;1.27;;
28862;SDS011;15994;51.796;13.006;2022-09-12T08:49:32;2.30;;;1.42;;
28862;SDS011;15994;51.796;13.006;2022-09-12T08:52:24;3.47;;;1.30;;
28862;SDS011;15994;51.796;13.006;2022-09-12T08:55:03;2.42;;;1.10;;
28862;SDS011;15994;51.796;13.006;2022-09-12T08:57:31;1.52;;;0.80;;
28862;SDS011;15994;51.796;13.006;2022-09-12T08:59:58;2.28;;;1.15;;
28862;SDS011;15994;51.796;13.006;2022-09-12T09:02:33;3.95;;;0.98;;
28862;SDS011;15994;51.796;13.006;2022-09-12T09:16:04;1.73;;;0.80;;
28862;SDS011;15994;51.796;13.006;2022-09-12T09:18:39;3.55;;;0.90;;
28862;SDS011;15994;51.796;13.006;2022-09-12T09:21:13;0.98;;;0.75;;
28862;SDS011;15994;51.796;13.006;2022-09-12T09:23:55;2.00;;;0.80;;
28862;SDS011;15994;51.796;13.006;2022-09-12T09:31:53;1.85;;;0.70;;
28862;SDS011;15994;51.796;13.006;2022-09-12T09:34:24;1.98;;;0.70;;
28862;SDS011;15994;51.796;13.006;2022-09-12T09:39:27;1.77;;;0.70;;
28862;SDS011;15994;51.796;13.006;2022-09-12T09:45:10;2.22;;;0.65;;
28862;SDS011;15994;51.796;13.006;2022-09-12T09:47:50;3.03;;;0.77;;
28862;SDS011;15994;51.796;13.006;2022-09-12T09:50:22;2.08;;;1.25;;
28862;SDS011;15994;51.796;13.006;2022-09-12T09:52:50;1.92;;;1.02;;
28862;SDS011;15994;51.796;13.006;2022-09-12T09:55:19;3.42;;;1.10;;
28862;SDS011;15994;51.796;13.006;2022-09-12T09:57:49;1.50;;;0.90;;
28862;SDS011;15994;51.796;13.006;2022-09-12T10:00:27;2.25;;;0.90;;
28862;SDS011;15994;51.796;13.006;2022-09-12T10:02:59;4.35;;;1.00;;
28862;SDS011;15994;51.796;13.006;2022-09-12T10:05:28;1.85;;;0.90;;
28862;SDS011;15994;51.796;13.006;2022-09-12T10:07:57;1.58;;;0.95;;
28862;SDS011;15994;51.796;13.006;2022-09-12T10:10:24;4.07;;;1.13;;
28862;SDS011;15994;51.796;13.006;2022-09-12T10:12:56;2.65;;;0.95;;
28862;SDS011;15994;51.796;13.006;2022-09-12T10:15:33;1.98;;;0.98;;
28862;SDS011;15994;51.796;13.006;2022-09-12T10:18:02;1.83;;;0.90;;
28862;SDS011;15994;51.796;13.006;2022-09-12T10:20:39;2.13;;;0.80;;
28862;SDS011;15994;51.796;13.006;2022-09-12T10:25:47;1.40;;;1.00;;
28862;SDS011;15994;51.796;13.006;2022-09-12T10:28:21;1.65;;;0.90;;
28862;SDS011;15994;51.796;13.006;2022-09-12T10:30:51;2.33;;;0.80;;
28862;SDS011;15994;51.796;13.006;2022-09-12T10:33:19;1.58;;;0.80;;
28862;SDS011;15994;51.796;13.006;2022-09-12T10:35:49;1.95;;;0.88;;
28862;SDS011;15994;51.796;13.006;2022-09-12T10:38:30;1.33;;;0.65;;
28862;SDS011;15994;51.796;13.006;2022-09-12T10:41:05;1.52;;;0.82;;
28862;SDS011;15994;51.796;13.006;2022-09-12T10:43:39;1.10;;;0.70;;
28862;SDS011;15994;51.796;13.006;2022-09-12T10:46:19;3.00;;;0.80;;
28862;SDS011;15994;51.796;13.006;2022-09-12T10:48:48;1.88;;;0.80;;
28862;SDS011;15994;51.796;13.006;2022-09-12T10:53:55;3.03;;;1.27;;
28862;SDS011;15994;51.796;13.006;2022-09-12T10:56:31;1.30;;;0.73;;
28862;SDS011;15994;51.796;13.006;2022-09-12T11:02:08;1.48;;;0.80;;
28862;SDS011;15994;51.796;13.006;2022-09-12T11:04:55;4.68;;;0.80;;
28862;SDS011;15994;51.796;13.006;2022-09-12T11:10:11;2.05;;;0.80;;
28862;SDS011;15994;51.796;13.006;2022-09-12T11:18:55;1.20;;;0.75;;
28862;SDS011;15994;51.796;13.006;2022-09-12T11:29:58;1.17;;;0.60;;
28862;SDS011;15994;51.796;13.006;2022-09-12T11:35:28;2.40;;;0.95;;
28862;SDS011;15994;51.796;13.006;2022-09-12T11:41:10;1.30;;;0.90;;
28862;SDS011;15994;51.796;13.006;2022-09-12T11:43:45;4.40;;;1.10;;
28862;SDS011;15994;51.796;13.006;2022-09-12T11:48:54;1.77;;;0.90;;
28862;SDS011;15994;51.796;13.006;2022-09-12T11:51:26;1.80;;;0.90;;
28862;SDS011;15994;51.796;13.006;2022-09-12T11:54:19;1.75;;;0.63;;
28862;SDS011;15994;51.796;13.006;2022-09-12T11:57:03;2.60;;;0.70;;
28862;SDS011;15994;51.796;13.006;2022-09-12T12:02:20;2.55;;;0.60;;
28862;SDS011;15994;51.796;13.006;2022-09-12T12:05:03;1.23;;;0.50;;
28862;SDS011;15994;51.796;13.006;2022-09-12T12:07:34;1.88;;;0.65;;
28862;SDS011;15994;51.796;13.006;2022-09-12T12:10:07;2.42;;;0.77;;
28862;SDS011;15994;51.796;13.006;2022-09-12T12:12:49;0.77;;;0.60;;
28862;SDS011;15994;51.796;13.006;2022-09-12T12:15:16;1.45;;;0.70;;
28862;SDS011;15994;51.796;13.006;2022-09-12T12:17:43;2.28;;;0.70;;
28862;SDS011;15994;51.796;13.006;2022-09-12T12:20:14;2.22;;;0.60;;
28862;SDS011;15994;51.796;13.006;2022-09-12T12:22:52;1.50;;;0.73;;
28862;SDS011;15994;51.796;13.006;2022-09-12T12:27:52;1.10;;;0.60;;
28862;SDS011;15994;51.796;13.006;2022-09-12T12:32:58;1.48;;;0.40;;
28862;SDS011;15994;51.796;13.006;2022-09-12T12:35:36;1.67;;;0.70;;
28862;SDS011;15994;51.796;13.006;2022-09-12T12:38:03;0.40;;;0.40;;
28862;SDS011;15994;51.796;13.006;2022-09-12T12:40:50;1.52;;;0.60;;
28862;SDS011;15994;51.796;13.006;2022-09-12T12:43:27;2.05;;;0.80;;
28862;SDS011;15994;51.796;13.006;2022-09-12T12:46:00;1.08;;;0.60;;
28862;SDS011;15994;51.796;13.006;2022-09-12T12:48:29;2.42;;;0.85;;
28862;SDS011;15994;51.796;13.006;2022-09-12T12:51:15;0.98;;;0.70;;
28862;SDS011;15994;51.796;13.006;2022-09-12T12:53:54;1.52;;;0.60;;
28862;SDS011;15994;51.796;13.006;2022-09-12T12:58:58;1.42;;;0.60;;
28862;SDS011;15994;51.796;13.006;2022-09-12T13:01:36;1.02;;;0.50;;
28862;SDS011;15994;51.796;13.006;2022-09-12T13:04:16;2.15;;;0.70;;
28862;SDS011;15994;51.796;13.006;2022-09-12T13:09:33;1.52;;;0.70;;
28862;SDS011;15994;51.796;13.006;2022-09-12T13:12:16;2.00;;;0.57;;
28862;SDS011;15994;51.796;13.006;2022-09-12T13:17:24;1.58;;;0.60;;
28862;SDS011;15994;51.796;13.006;2022-09-12T13:20:28;2.15;;;0.60;;
28862;SDS011;15994;51.796;13.006;2022-09-12T13:22:50;2.78;;;0.50;;
28862;SDS011;15994;51.796;13.006;2022-09-12T13:25:18;0.98;;;0.57;;
28862;SDS011;15994;51.796;13.006;2022-09-12T13:33:38;1.20;;;0.50;;
28862;SDS011;15994;51.796;13.006;2022-09-12T13:36:20;1.42;;;0.63;;
28862;SDS011;15994;51.796;13.006;2022-09-12T13:39:03;0.60;;;0.50;;
28862;SDS011;15994;51.796;13.006;2022-09-12T13:42:00;1.73;;;0.70;;
28862;SDS011;15994;51.796;13.006;2022-09-12T13:44:48;1.80;;;0.60;;
28862;SDS011;15994;51.796;13.006;2022-09-12T13:47:22;0.82;;;0.60;;
28862;SDS011;15994;51.796;13.006;2022-09-12T13:49:53;1.23;;;0.50;;
28862;SDS011;15994;51.796;13.006;2022-09-12T13:52:22;2.05;;;0.60;;
28862;SDS011;15994;51.796;13.006;2022-09-12T13:54:52;0.93;;;0.60;;
28862;SDS011;15994;51.796;13.006;2022-09-12T13:57:31;1.35;;;0.50;;
28862;SDS011;15994;51.796;13.006;2022-09-12T14:00:04;3.70;;;0.70;;
28862;SDS011;15994;51.796;13.006;2022-09-12T14:02:34;3.05;;;0.75;;
28862;SDS011;15994;51.796;13.006;2022-09-12T14:05:09;1.27;;;0.57;;
28862;SDS011;15994;51.796;13.006;2022-09-12T14:10:16;1.25;;;0.55;;
28862;SDS011;15994;51.796;13.006;2022-09-12T14:12:48;3.47;;;0.70;;
28862;SDS011;15994;51.796;13.006;2022-09-12T14:15:26;2.05;;;0.52;;
28862;SDS011;15994;51.796;13.006;2022-09-12T14:17:57;2.53;;;0.70;;
28862;SDS011;15994;51.796;13.006;2022-09-12T14:20:25;2.45;;;0.60;;
28862;SDS011;15994;51.796;13.006;2022-09-12T14:22:55;0.80;;;0.52;;
28862;SDS011;15994;51.796;13.006;2022-09-12T14:25:39;1.33;;;0.60;;
28862;SDS011;15994;51.796;13.006;2022-09-12T14:28:12;1.50;;;0.75;;
28862;SDS011;15994;51.796;13.006;2022-09-12T14:30:44;0.50;;;0.43;;
28862;SDS011;15994;51.796;13.006;2022-09-12T14:33:23;1.63;;;0.70;;
28862;SDS011;15994;51.796;13.006;2022-09-12T14:35:51;1.35;;;0.60;;
28862;SDS011;15994;51.796;13.006;2022-09-12T14:38:35;0.88;;;0.47;;
28862;SDS011;15994;51.796;13.006;2022-09-12T14:41:06;0.90;;;0.50;;
28862;SDS011;15994;51.796;13.006;2022-09-12T14:43:35;1.42;;;0.50;;
28862;SDS011;15994;51.796;13.006;2022-09-12T14:46:06;1.25;;;0.50;;
28862;SDS011;15994;51.796;13.006;2022-09-12T14:48:46;1.73;;;0.52;;
28862;SDS011;15994;51.796;13.006;2022-09-12T14:51:24;1.33;;;0.60;;
28862;SDS011;15994;51.796;13.006;2022-09-12T14:53:55;2.38;;;0.60;;
28862;SDS011;15994;51.796;13.006;2022-09-12T14:56:36;2.15;;;0.60;;
28862;SDS011;15994;51.796;13.006;2022-09-12T15:04:52;1.90;;;0.50;;
28862;SDS011;15994;51.796;13.006;2022-09-12T15:07:40;2.15;;;0.70;;
28862;SDS011;15994;51.796;13.006;2022-09-12T15:15:30;1.85;;;0.60;;
28862;SDS011;15994;51.796;13.006;2022-09-12T15:17:57;0.90;;;0.65;;
28862;SDS011;15994;51.796;13.006;2022-09-12T15:20:24;1.92;;;0.60;;
28862;SDS011;15994;51.796;13.006;2022-09-12T15:22:50;1.23;;;0.60;;
28862;SDS011;15994;51.796;13.006;2022-09-12T15:25:17;1.85;;;0.60;;
28862;SDS011;15994;51.796;13.006;2022-09-12T15:27:45;1.73;;;0.60;;
28862;SDS011;15994;51.796;13.006;2022-09-12T15:30:12;1.45;;;0.70;;
28862;SDS011;15994;51.796;13.006;2022-09-12T15:32:40;1.40;;;0.65;;
28862;SDS011;15994;51.796;13.006;2022-09-12T15:35:09;2.72;;;0.73;;
28862;SDS011;15994;51.796;13.006;2022-09-12T15:37:43;1.55;;;0.70;;
28862;SDS011;15994;51.796;13.006;2022-09-12T15:40:10;1.25;;;0.70;;
28862;SDS011;15994;51.796;13.006;2022-09-12T15:42:37;1.38;;;0.68;;
28862;SDS011;15994;51.796;13.006;2022-09-12T15:45:14;1.65;;;0.60;;
28862;SDS011;15994;51.796;13.006;2022-09-12T15:47:47;2.30;;;0.70;;
28862;SDS011;15994;51.796;13.006;2022-09-12T15:50:14;1.48;;;0.73;;
28862;SDS011;15994;51.796;13.006;2022-09-12T15:52:41;1.92;;;0.77;;
28862;SDS011;15994;51.796;13.006;2022-09-12T15:55:14;1.73;;;0.52;;
28862;SDS011;15994;51.796;13.006;2022-09-12T15:57:46;2.60;;;0.80;;
28862;SDS011;15994;51.796;13.006;2022-09-12T16:00:13;2.53;;;0.80;;
28862;SDS011;15994;51.796;13.006;2022-09-12T16:02:41;1.27;;;0.70;;
28862;SDS011;15994;51.796;13.006;2022-09-12T16:05:16;1.63;;;0.68;;
28862;SDS011;15994;51.796;13.006;2022-09-12T16:07:44;2.15;;;0.80;;
28862;SDS011;15994;51.796;13.006;2022-09-12T16:10:13;2.03;;;0.73;;
28862;SDS011;15994;51.796;13.006;2022-09-12T16:12:41;1.08;;;0.70;;
28862;SDS011;15994;51.796;13.006;2022-09-12T16:15:11;1.48;;;0.80;;
28862;SDS011;15994;51.796;13.006;2022-09-12T16:17:41;1.17;;;0.70;;
28862;SDS011;15994;51.796;13.006;2022-09-12T16:20:07;2.75;;;0.80;;
28862;SDS011;15994;51.796;13.006;2022-09-12T16:22:35;1.77;;;0.70;;
28862;SDS011;15994;51.796;13.006;2022-09-12T16:25:02;3.42;;;0.85;;
28862;SDS011;15994;51.796;13.006;2022-09-12T16:27:30;1.50;;;0.73;;
28862;SDS011;15994;51.796;13.006;2022-09-12T16:29:57;3.10;;;0.90;;
28862;SDS011;15994;51.796;13.006;2022-09-12T16:32:23;3.03;;;0.90;;
28862;SDS011;15994;51.796;13.006;2022-09-12T16:34:50;1.90;;;0.77;;
28862;SDS011;15994;51.796;13.006;2022-09-12T16:37:16;3.53;;;0.85;;
28862;SDS011;15994;51.796;13.006;2022-09-12T16:39:43;2.28;;;1.10;;
28862;SDS011;15994;51.796;13.006;2022-09-12T16:42:10;1.95;;;0.70;;
28862;SDS011;15994;51.796;13.006;2022-09-12T16:44:36;2.33;;;0.80;;
28862;SDS011;15994;51.796;13.006;2022-09-12T16:47:03;1.67;;;0.80;;
28862;SDS011;15994;51.796;13.006;2022-09-12T16:49:30;1.88;;;0.90;;
28862;SDS011;15994;51.796;13.006;2022-09-12T16:51:56;2.90;;;1.20;;
28862;SDS011;15994;51.796;13.006;2022-09-12T16:54:23;2.55;;;0.80;;
28862;SDS011;15994;51.796;13.006;2022-09-12T16:56:50;1.40;;;0.80;;
28862;SDS011;15994;51.796;13.006;2022-09-12T16:59:16;2.53;;;0.80;;
28862;SDS011;15994;51.796;13.006;2022-09-12T17:01:43;1.58;;;1.00;;
28862;SDS011;15994;51.796;13.006;2022-09-12T17:04:09;1.42;;;0.90;;
28862;SDS011;15994;51.796;13.006;2022-09-12T17:06:36;1.52;;;0.90;;